createdAt,value
2023-02-12T00:02:03.541Z,102409.13
2023-02-12T00:04:31.987Z,102407.38
2023-02-12T00:06:59.905Z,102398.31
2023-02-12T00:09:27.459Z,102399.19
2023-02-12T00:11:54.861Z,102403.88
2023-02-12T00:14:22.247Z,102399.16
2023-02-12T00:16:49.589Z,102393.25
2023-02-12T00:19:16.965Z,102394.06
2023-02-12T00:21:44.321Z,102401.06
2023-02-12T00:24:11.804Z,102409.13
2023-02-12T00:26:39.589Z,102403.06
2023-02-12T00:29:07.128Z,102409.66
2023-02-12T00:31:34.621Z,102402.66
2023-02-12T00:34:02.048Z,102412.66
2023-02-12T00:36:31.486Z,102392.66
2023-02-12T00:39:00.253Z,102398.97
2023-02-12T00:41:28.379Z,102412.69
2023-02-12T00:43:56.184Z,102409.22
2023-02-12T00:46:23.667Z,102392.03
2023-02-12T00:48:51.211Z,102390.50
2023-02-12T00:51:21.060Z,102404.47
2023-02-12T00:53:48.497Z,102405.78
2023-02-12T00:56:15.866Z,102407.38
2023-02-12T00:58:43.264Z,102394.19
2023-02-12T01:01:10.746Z,102405.50
2023-02-12T01:03:38.707Z,102402.56
2023-02-12T01:06:06.595Z,102404.47
2023-02-12T01:08:34.129Z,102416.97
2023-02-12T01:11:03.870Z,102417.88
2023-02-12T01:13:33.335Z,102406.16
2023-02-12T01:16:06.872Z,102415.09
2023-02-12T01:18:35.304Z,102406.31
2023-02-12T01:21:08.278Z,102391.44
2023-02-12T01:23:35.676Z,102403.41
2023-02-12T01:26:03.161Z,102394.47
2023-02-12T01:28:30.749Z,102391.53
2023-02-12T01:30:58.174Z,102391.31
2023-02-12T01:33:25.633Z,102378.69
2023-02-12T01:35:53.325Z,102387.31
2023-02-12T01:38:20.866Z,102371.34
2023-02-12T01:40:48.296Z,102379.97
2023-02-12T01:43:15.736Z,102365.53
2023-02-12T01:45:50.108Z,102381.72
2023-02-12T01:48:19.307Z,102363.13
2023-02-12T01:50:49.070Z,102359.03
2023-02-12T01:53:20.429Z,102359.47
2023-02-12T01:55:50.920Z,102367.66
2023-02-12T01:58:19.225Z,102362.56
2023-02-12T02:00:47.328Z,102366.41
2023-02-12T02:03:14.953Z,102349.81
2023-02-12T02:05:54.748Z,102362.50
2023-02-12T02:08:23.174Z,102375.78
2023-02-12T02:10:50.501Z,102369.63
2023-02-12T02:13:37.112Z,102369.31
2023-02-12T02:16:18.090Z,102357.16
2023-02-12T02:19:06.329Z,102365.31
2023-02-12T02:21:51.466Z,102350.44
2023-02-12T02:24:47.885Z,102358.59
2023-02-12T02:27:19.620Z,102342.03
2023-02-12T02:30:15.143Z,102346.44
2023-02-12T02:32:54.214Z,102348.59
2023-02-12T02:35:41.358Z,102344.47
2023-02-12T02:38:20.355Z,102337.28
2023-02-12T02:41:02.619Z,102335.84
2023-02-12T02:43:35.283Z,102324.16
2023-02-12T02:46:08.724Z,102324.13
2023-02-12T02:48:40.839Z,102319.19
2023-02-12T02:51:14.353Z,102317.88
2023-02-12T02:53:46.260Z,102317.28
2023-02-12T02:56:17.850Z,102315.91
2023-02-12T02:58:59.408Z,102317.38
2023-02-12T03:01:44.900Z,102324.50
2023-02-12T03:04:27.902Z,102311.56
2023-02-12T03:07:01.489Z,102299.41
2023-02-12T03:09:38.487Z,102315.25
2023-02-12T03:12:14.554Z,102308.69
2023-02-12T03:14:50.931Z,102306.25
2023-02-12T03:17:27.292Z,102315.72
2023-02-12T03:20:14.954Z,102313.84
2023-02-12T03:22:49.252Z,102301.28
2023-02-12T03:25:21.515Z,102292.94
2023-02-12T03:28:22.500Z,102289.78
2023-02-12T03:31:09.112Z,102294.28
2023-02-12T03:33:45.368Z,102294.25
2023-02-12T03:36:42.529Z,102287.03
2023-02-12T03:39:30.060Z,102297.44
2023-02-12T03:42:21.202Z,102295.94
2023-02-12T03:45:05.058Z,102277.81
2023-02-12T03:47:57.533Z,102280.56
2023-02-12T03:50:42.935Z,102285.69
2023-02-12T03:53:10.605Z,102292.28
2023-02-12T03:55:42.494Z,102295.47
2023-02-12T03:58:15.820Z,102308.81
2023-02-12T04:00:44.235Z,102310.22
2023-02-12T04:03:12.160Z,102308.16
2023-02-12T04:05:39.511Z,102319.91
2023-02-12T04:08:09.107Z,102316.97
2023-02-12T04:10:46.809Z,102310.59
2023-02-12T04:13:37.093Z,102305.78
2023-02-12T04:16:27.997Z,102312.72
2023-02-12T04:18:55.847Z,102318.22
2023-02-12T04:21:44.474Z,102325.16
2023-02-12T04:24:48.727Z,102323.28
2023-02-12T04:27:29.676Z,102299.25
2023-02-12T04:30:09.267Z,102314.69
2023-02-12T04:32:55.254Z,102305.50
2023-02-12T04:35:31.656Z,102316.28
2023-02-12T04:38:08.859Z,102319.09
2023-02-12T04:40:38.832Z,102313.44
2023-02-12T04:43:06.325Z,102311.78
2023-02-12T04:45:35.447Z,102300.44
2023-02-12T04:48:03.443Z,102305.69
2023-02-12T04:50:41.462Z,102305.94
2023-02-12T04:53:10.160Z,102308.69
2023-02-12T04:55:37.776Z,102301.19
2023-02-12T04:58:06.275Z,102300.47
2023-02-12T05:00:33.743Z,102296.41
2023-02-12T05:03:01.229Z,102307.44
2023-02-12T05:05:28.667Z,102304.84
2023-02-12T05:07:56.067Z,102306.91
2023-02-12T05:10:23.763Z,102306.31
2023-02-12T05:12:54.935Z,102300.78
2023-02-12T05:15:22.720Z,102312.34
2023-02-12T05:17:50.161Z,102299.56
2023-02-12T05:20:17.701Z,102298.50
2023-02-12T05:22:45.067Z,102299.00
2023-02-12T05:25:12.392Z,102306.78
2023-02-12T05:27:39.777Z,102284.94
2023-02-12T05:30:09.520Z,102298.66
2023-02-12T05:32:36.993Z,102293.25
2023-02-12T05:35:04.722Z,102291.44
2023-02-12T05:37:36.245Z,102294.34
2023-02-12T05:40:04.694Z,102292.66
2023-02-12T05:42:32.142Z,102288.16
2023-02-12T05:44:59.450Z,102282.63
2023-02-12T05:47:26.936Z,102282.34
2023-02-12T05:49:54.396Z,102300.06
2023-02-12T05:52:21.794Z,102304.88
2023-02-12T05:54:50.473Z,102295.41
2023-02-12T05:57:18.122Z,102300.28
2023-02-12T05:59:45.543Z,102312.06
2023-02-12T06:02:12.893Z,102326.31
2023-02-12T06:04:40.346Z,102308.00
2023-02-12T06:07:07.783Z,102305.09
2023-02-12T06:09:35.581Z,102314.78
2023-02-12T06:12:03.481Z,102325.09
2023-02-12T06:14:31.994Z,102335.97
2023-02-12T06:16:59.552Z,102340.25
2023-02-12T06:19:26.884Z,102346.41
2023-02-12T06:21:54.269Z,102351.91
2023-02-12T06:24:21.592Z,102341.81
2023-02-12T06:26:52.489Z,102362.00
2023-02-12T06:29:21.107Z,102345.22
2023-02-12T06:31:49.272Z,102366.25
2023-02-12T06:34:18.373Z,102364.63
2023-02-12T06:36:47.253Z,102375.38
2023-02-12T06:39:16.640Z,102374.09
2023-02-12T06:41:44.692Z,102377.91
2023-02-12T06:44:13.013Z,102381.47
2023-02-12T06:46:40.618Z,102385.53
2023-02-12T06:49:08.380Z,102381.16
2023-02-12T06:51:38.307Z,102389.13
2023-02-12T06:54:05.810Z,102392.34
2023-02-12T06:56:33.313Z,102386.56
2023-02-12T06:59:01.299Z,102390.91
2023-02-12T07:01:30.027Z,102386.78
2023-02-12T07:03:58.539Z,102376.91
2023-02-12T07:06:27.366Z,102382.91
2023-02-12T07:08:58.562Z,102365.97
2023-02-12T07:11:28.050Z,102371.28
2023-02-12T07:13:55.405Z,102377.59
2023-02-12T07:16:23.370Z,102390.13
2023-02-12T07:18:51.109Z,102400.22
2023-02-12T07:21:19.963Z,102426.78
2023-02-12T07:23:52.098Z,102410.66
2023-02-12T07:26:21.612Z,102402.47
2023-02-12T07:28:50.009Z,102398.09
2023-02-12T07:31:20.472Z,102421.00
2023-02-12T07:33:49.231Z,102423.13
2023-02-12T07:36:19.507Z,102426.19
2023-02-12T07:38:48.080Z,102429.63
2023-02-12T07:41:19.646Z,102426.47
2023-02-12T07:43:48.396Z,102445.13
2023-02-12T07:46:21.991Z,102433.16
2023-02-12T07:48:51.552Z,102439.44
2023-02-12T07:51:19.399Z,102425.44
2023-02-12T07:53:47.861Z,102425.75
2023-02-12T07:56:19.174Z,102427.59
2023-02-12T07:58:49.104Z,102429.94
2023-02-12T08:01:24.075Z,102445.19
2023-02-12T08:03:51.724Z,102444.00
2023-02-12T08:06:23.129Z,102423.09
2023-02-12T08:08:55.996Z,102440.38
2023-02-12T08:11:24.846Z,102446.13
2023-02-12T08:13:52.299Z,102440.56
2023-02-12T08:16:22.155Z,102443.69
2023-02-12T08:18:50.314Z,102453.47
2023-02-12T08:21:23.238Z,102472.22
2023-02-12T08:23:51.243Z,102474.31
2023-02-12T08:26:22.158Z,102473.00
2023-02-12T08:28:56.056Z,102470.28
2023-02-12T08:31:26.143Z,102469.66
2023-02-12T08:33:55.025Z,102463.16
2023-02-12T08:36:25.381Z,102458.97
2023-02-12T08:38:53.531Z,102450.09
2023-02-12T08:41:23.927Z,102472.97
2023-02-12T08:43:55.505Z,102466.09
2023-02-12T08:46:24.557Z,102464.28
2023-02-12T08:48:56.357Z,102463.22
2023-02-12T08:51:26.565Z,102468.66
2023-02-12T08:53:56.668Z,102463.34
2023-02-12T08:56:25.681Z,102439.16
2023-02-12T08:58:53.263Z,102447.91
2023-02-12T09:01:23.148Z,102447.09
2023-02-12T09:03:51.120Z,102449.25
2023-02-12T09:06:21.253Z,102447.28
2023-02-12T09:08:48.989Z,102462.78
2023-02-12T09:11:19.286Z,102450.78
2023-02-12T09:13:47.625Z,102454.53
2023-02-12T09:16:15.092Z,102458.75
2023-02-12T09:18:42.685Z,102458.47
2023-02-12T09:21:13.727Z,102456.88
2023-02-12T09:23:41.229Z,102469.09
2023-02-12T09:26:11.539Z,102468.88
2023-02-12T09:28:39.831Z,102466.19
2023-02-12T09:31:16.259Z,102469.66
2023-02-12T09:33:44.024Z,102461.31
2023-02-12T09:36:14.796Z,102471.66
2023-02-12T09:38:42.742Z,102471.53
2023-02-12T09:41:34.776Z,102478.72
2023-02-12T09:44:31.817Z,102482.22
2023-02-12T09:47:10.808Z,102477.09
2023-02-12T09:50:04.341Z,102469.16
2023-02-12T09:52:31.912Z,102472.53
2023-02-12T09:54:59.961Z,102469.38
2023-02-12T09:57:33.417Z,102473.94
2023-02-12T10:00:06.658Z,102463.19
2023-02-12T10:02:37.709Z,102460.41
2023-02-12T10:05:11.937Z,102466.75
2023-02-12T10:08:06.059Z,102487.06
2023-02-12T10:10:51.739Z,102488.06
2023-02-12T10:13:34.239Z,102491.69
2023-02-12T10:16:16.242Z,102493.63
2023-02-12T10:18:51.377Z,102494.59
2023-02-12T10:21:55.181Z,102496.47
2023-02-12T10:24:28.508Z,102489.50
2023-02-12T10:27:03.541Z,102496.63
2023-02-12T10:29:38.198Z,102494.91
2023-02-12T10:32:22.924Z,102493.44
2023-02-12T10:34:51.537Z,102493.47
2023-02-12T10:37:26.112Z,102487.88
2023-02-12T10:40:01.708Z,102488.72
2023-02-12T10:42:38.119Z,102477.31
2023-02-12T10:45:06.561Z,102475.66
2023-02-12T10:47:33.811Z,102474.94
2023-02-12T10:50:02.965Z,102476.72
2023-02-12T10:52:43.817Z,102461.59
2023-02-12T10:55:32.381Z,102474.97
2023-02-12T10:58:02.437Z,102470.56
2023-02-12T11:00:31.766Z,102468.03
2023-02-12T11:03:11.269Z,102470.72
2023-02-12T11:05:41.978Z,102473.44
2023-02-12T11:08:31.230Z,102469.88
2023-02-12T11:11:13.863Z,102473.44
2023-02-12T11:13:46.620Z,102479.69
2023-02-12T11:16:14.366Z,102479.69
2023-02-12T11:18:42.203Z,102480.63
2023-02-12T11:21:11.451Z,102471.84
2023-02-12T11:23:41.686Z,102473.56
2023-02-12T11:26:18.259Z,102470.06
2023-02-12T11:29:24.427Z,102472.72
2023-02-12T11:32:08.476Z,102476.34
2023-02-12T11:34:37.058Z,102479.00
2023-02-12T11:37:05.163Z,102471.94
2023-02-12T11:39:38.969Z,102482.59
2023-02-12T11:42:18.580Z,102480.91
2023-02-12T11:45:04.755Z,102485.44
2023-02-12T11:47:35.425Z,102486.38
2023-02-12T11:50:15.892Z,102484.59
2023-02-12T11:52:44.037Z,102487.22
2023-02-12T11:55:24.786Z,102484.59
2023-02-12T11:57:54.978Z,102484.53
2023-02-12T12:00:35.807Z,102483.63
2023-02-12T12:03:26.933Z,102483.66
2023-02-12T12:05:59.658Z,102485.41
2023-02-12T12:08:40.684Z,102488.97
2023-02-12T12:11:16.118Z,102478.31
2023-02-12T12:13:49.718Z,102474.75
2023-02-12T12:16:52.975Z,102467.66
2023-02-12T12:19:56.324Z,102460.59
2023-02-12T12:22:44.337Z,102454.41
2023-02-12T12:25:20.546Z,102462.44
2023-02-12T12:28:03.146Z,102462.50
2023-02-12T12:30:33.703Z,102462.44
2023-02-12T12:33:06.348Z,102449.13
2023-02-12T12:35:51.196Z,102456.31
2023-02-12T12:38:46.408Z,102454.50
2023-02-12T12:41:48.011Z,102444.78
2023-02-12T12:44:24.483Z,102442.13
2023-02-12T12:47:13.268Z,102446.53
2023-02-12T12:49:43.983Z,102450.09
2023-02-12T12:52:23.425Z,102450.09
2023-02-12T12:55:15.453Z,102452.75
2023-02-12T12:57:54.931Z,102454.56
2023-02-12T13:00:38.283Z,102443.00
2023-02-12T13:03:41.176Z,102449.22
2023-02-12T13:06:36.280Z,102445.69
2023-02-12T13:09:37.589Z,102451.88
2023-02-12T13:12:37.014Z,102452.78
2023-02-12T13:15:17.573Z,102440.34
2023-02-12T13:17:53.644Z,102451.00
2023-02-12T13:20:42.177Z,102451.88
2023-02-12T13:23:14.696Z,102450.97
2023-02-12T13:25:59.221Z,102440.25
2023-02-12T13:28:37.812Z,102435.81
2023-02-12T13:31:30.013Z,102425.94
2023-02-12T13:34:05.493Z,102426.72
2023-02-12T13:36:36.594Z,102430.22
2023-02-12T13:39:18.856Z,102438.13
2023-02-12T13:41:57.479Z,102442.59
2023-02-12T13:44:32.925Z,102421.22
2023-02-12T13:47:16.184Z,102427.47
2023-02-12T13:49:58.687Z,102435.44
2023-02-12T13:52:57.117Z,102440.75
2023-02-12T13:55:38.447Z,102437.97
2023-02-12T13:58:39.943Z,102453.06
2023-02-12T14:01:10.810Z,102438.69
2023-02-12T14:03:39.177Z,102435.16
2023-02-12T14:06:22.013Z,102447.56
2023-02-12T14:09:09.749Z,102451.22
2023-02-12T14:11:50.420Z,102455.50
2023-02-12T14:14:40.752Z,102453.78
2023-02-12T14:17:30.856Z,102453.75
2023-02-12T14:20:22.909Z,102443.13
2023-02-12T14:22:50.265Z,102451.13
2023-02-12T14:25:38.247Z,102459.22
2023-02-12T14:28:11.602Z,102461.88
2023-02-12T14:30:40.582Z,102464.56
2023-02-12T14:33:08.005Z,102465.47
2023-02-12T14:35:36.961Z,102464.63
2023-02-12T14:38:16.569Z,102461.94
2023-02-12T14:40:48.789Z,102465.59
2023-02-12T14:43:54.500Z,102465.53
2023-02-12T14:46:25.000Z,102470.03
2023-02-12T14:48:58.035Z,102470.94
2023-02-12T14:51:56.056Z,102478.06
2023-02-12T14:54:43.728Z,102470.91
2023-02-12T14:57:31.545Z,102478.94
2023-02-12T15:00:05.433Z,102490.56
2023-02-12T15:02:36.301Z,102486.09
2023-02-12T15:05:16.712Z,102495.03
2023-02-12T15:07:48.713Z,102483.47
2023-02-12T15:10:20.232Z,102482.63
2023-02-12T15:13:12.811Z,102487.97
2023-02-12T15:15:44.692Z,102483.53
2023-02-12T15:18:27.625Z,102473.75
2023-02-12T15:21:02.894Z,102481.72
2023-02-12T15:23:42.372Z,102484.44
2023-02-12T15:26:16.686Z,102482.69
2023-02-12T15:28:48.526Z,102484.47
2023-02-12T15:31:17.937Z,102491.56
2023-02-12T15:33:49.052Z,102500.50
2023-02-12T15:36:20.372Z,102491.63
2023-02-12T15:38:54.779Z,102496.13
2023-02-12T15:41:34.121Z,102503.22
2023-02-12T15:44:05.164Z,102506.78
2023-02-12T15:46:32.590Z,102498.75
2023-02-12T15:49:00.381Z,102504.13
2023-02-12T15:51:35.442Z,102503.28
2023-02-12T15:54:06.730Z,102494.38
2023-02-12T15:56:36.360Z,102506.81
2023-02-12T15:59:04.397Z,102506.81
2023-02-12T16:01:35.114Z,102515.75
2023-02-12T16:04:08.399Z,102505.97
2023-02-12T16:06:39.422Z,102518.41
2023-02-12T16:09:15.507Z,102522.88
2023-02-12T16:11:45.550Z,102509.56
2023-02-12T16:14:36.781Z,102514.91
2023-02-12T16:17:04.361Z,102520.25
2023-02-12T16:19:37.057Z,102529.13
2023-02-12T16:22:14.409Z,102529.13
2023-02-12T16:24:51.587Z,102528.28
2023-02-12T16:27:22.026Z,102536.28
2023-02-12T16:29:53.033Z,102530.09
2023-02-12T16:32:42.315Z,102525.63
2023-02-12T16:35:09.623Z,102540.75
2023-02-12T16:37:36.966Z,102542.50
2023-02-12T16:40:19.145Z,102545.19
2023-02-12T16:42:46.494Z,102540.72
2023-02-12T16:45:30.697Z,102560.31
2023-02-12T16:48:06.860Z,102556.75
2023-02-12T16:50:38.312Z,102565.63
2023-02-12T16:53:45.645Z,102567.41
2023-02-12T16:56:21.211Z,102570.06
2023-02-12T16:58:51.253Z,102570.97
2023-02-12T17:01:28.837Z,102570.06
2023-02-12T17:03:58.788Z,102583.41
2023-02-12T17:06:29.568Z,102584.28
2023-02-12T17:08:57.467Z,102581.59
2023-02-12T17:11:26.131Z,102586.91
2023-02-12T17:13:55.547Z,102593.13
2023-02-12T17:16:32.158Z,102594.03
2023-02-12T17:19:00.908Z,102593.09
2023-02-12T17:21:40.598Z,102609.09
2023-02-12T17:24:19.875Z,102595.75
2023-02-12T17:26:47.346Z,102611.69
2023-02-12T17:29:14.725Z,102609.91
2023-02-12T17:31:42.200Z,102605.47
2023-02-12T17:34:09.873Z,102613.47
2023-02-12T17:36:38.417Z,102617.91
2023-02-12T17:39:07.989Z,102622.34
2023-02-12T17:41:35.494Z,102618.72
2023-02-12T17:44:02.977Z,102628.47
2023-02-12T17:46:30.899Z,102632.88
2023-02-12T17:48:58.358Z,102638.19
2023-02-12T17:51:26.683Z,102639.09
2023-02-12T17:53:54.143Z,102647.00
2023-02-12T17:56:23.062Z,102640.81
2023-02-12T17:58:50.680Z,102651.38
2023-02-12T18:01:21.106Z,102652.25
2023-02-12T18:03:51.494Z,102645.16
2023-02-12T18:06:25.276Z,102651.41
2023-02-12T18:08:53.170Z,102657.59
2023-02-12T18:11:21.385Z,102653.09
2023-02-12T18:13:52.456Z,102651.31
2023-02-12T18:16:20.341Z,102646.88
2023-02-12T18:18:48.360Z,102651.28
2023-02-12T18:21:16.593Z,102653.94
2023-02-12T18:23:44.251Z,102659.22
2023-02-12T18:26:14.308Z,102665.44
2023-02-12T18:28:42.166Z,102666.31
2023-02-12T18:31:10.501Z,102658.31
2023-02-12T18:33:38.904Z,102661.88
2023-02-12T18:36:08.017Z,102662.72
2023-02-12T18:38:37.352Z,102671.53
2023-02-12T18:41:14.424Z,102659.06
2023-02-12T18:43:43.449Z,102659.03
2023-02-12T18:46:26.742Z,102675.84
2023-02-12T18:48:54.703Z,102684.78
2023-02-12T18:51:28.026Z,102679.44
2023-02-12T18:54:04.862Z,102674.97
2023-02-12T18:56:36.547Z,102683.88
2023-02-12T18:59:05.379Z,102690.91
2023-02-12T19:01:34.086Z,102690.88
2023-02-12T19:04:03.369Z,102687.38
2023-02-12T19:06:32.808Z,102677.50
2023-02-12T19:09:03.752Z,102687.31
2023-02-12T19:11:31.351Z,102695.25
2023-02-12T19:13:59.078Z,102694.44
2023-02-12T19:16:26.885Z,102697.97
2023-02-12T19:18:58.366Z,102697.03
2023-02-12T19:21:28.885Z,102691.72
2023-02-12T19:23:58.815Z,102694.25
2023-02-12T19:26:28.908Z,102695.06
2023-02-12T19:28:57.905Z,102700.38
2023-02-12T19:31:31.453Z,102710.13
2023-02-12T19:34:01.251Z,102706.59
2023-02-12T19:36:30.720Z,102713.69
2023-02-12T19:38:58.475Z,102712.75
2023-02-12T19:41:28.230Z,102716.31
2023-02-12T19:43:58.369Z,102713.66
2023-02-12T19:46:27.784Z,102721.66
2023-02-12T19:48:58.236Z,102723.44
2023-02-12T19:51:26.166Z,102725.19
2023-02-12T19:53:53.887Z,102723.38
2023-02-12T19:56:21.309Z,102726.09
2023-02-12T19:58:48.641Z,102732.19
2023-02-12T20:01:20.909Z,102733.13
2023-02-12T20:03:49.559Z,102740.22
2023-02-12T20:06:21.966Z,102742.88
2023-02-12T20:08:50.026Z,102742.00
2023-02-12T20:11:20.939Z,102744.78
2023-02-12T20:13:48.574Z,102743.00
2023-02-12T20:16:18.896Z,102738.50
2023-02-12T20:18:50.020Z,102740.22
2023-02-12T20:21:21.123Z,102747.34
2023-02-12T20:23:49.303Z,102748.22
2023-02-12T20:26:18.363Z,102759.72
2023-02-12T20:28:47.144Z,102757.84
2023-02-12T20:31:19.938Z,102756.06
2023-02-12T20:33:48.416Z,102759.53
2023-02-12T20:36:15.841Z,102748.88
2023-02-12T20:38:44.946Z,102755.94
2023-02-12T20:41:13.733Z,102765.72
2023-02-12T20:43:41.190Z,102760.31
2023-02-12T20:46:13.899Z,102757.63
2023-02-12T20:48:42.407Z,102759.44
2023-02-12T20:51:15.589Z,102754.84
2023-02-12T20:53:44.055Z,102765.47
2023-02-12T20:56:16.765Z,102770.75
2023-02-12T20:58:45.066Z,102776.09
2023-02-12T21:01:23.888Z,102769.91
2023-02-12T21:03:53.746Z,102770.69
2023-02-12T21:06:23.257Z,102767.13
2023-02-12T21:08:51.336Z,102775.88
2023-02-12T21:11:22.926Z,102777.78
2023-02-12T21:13:59.236Z,102782.31
2023-02-12T21:16:34.485Z,102787.63
2023-02-12T21:19:02.102Z,102783.03
2023-02-12T21:21:32.409Z,102776.00
2023-02-12T21:24:00.982Z,102785.59
2023-02-12T21:26:31.105Z,102793.34
2023-02-12T21:29:00.257Z,102787.03
2023-02-12T21:31:33.923Z,102801.00
2023-02-12T21:34:02.590Z,102795.47
2023-02-12T21:36:32.861Z,102797.88
2023-02-12T21:39:01.985Z,102802.94
2023-02-12T21:41:32.159Z,102804.53
2023-02-12T21:44:02.209Z,102794.72
2023-02-12T21:46:30.037Z,102812.06
2023-02-12T21:48:58.878Z,102813.47
2023-02-12T21:51:28.757Z,102803.59
2023-02-12T21:54:00.446Z,102807.97
2023-02-12T21:56:28.196Z,102819.34
2023-02-12T21:58:57.623Z,102807.81
2023-02-12T22:01:28.807Z,102821.06
2023-02-12T22:03:56.196Z,102824.41
2023-02-12T22:06:24.996Z,102821.72
2023-02-12T22:08:53.929Z,102824.34
2023-02-12T22:11:23.140Z,102833.25
2023-02-12T22:13:51.236Z,102825.94
2023-02-12T22:16:18.609Z,102834.78
2023-02-12T22:18:47.489Z,102833.00
2023-02-12T22:21:16.443Z,102835.63
2023-02-12T22:23:45.126Z,102831.09
2023-02-12T22:26:20.697Z,102839.13
2023-02-12T22:28:50.864Z,102833.00
2023-02-12T22:31:21.972Z,102840.13
2023-02-12T22:33:50.435Z,102841.03
2023-02-12T22:36:18.795Z,102845.44
2023-02-12T22:38:46.120Z,102837.69
2023-02-12T22:41:13.634Z,102843.66
2023-02-12T22:43:41.713Z,102862.31
2023-02-12T22:46:10.649Z,102858.75
2023-02-12T22:48:38.113Z,102850.66
2023-02-12T22:51:18.307Z,102859.47
2023-02-12T22:53:45.907Z,102863.75
2023-02-12T22:56:13.488Z,102859.09
2023-02-12T22:58:41.081Z,102851.31
2023-02-12T23:01:11.770Z,102852.13
2023-02-12T23:03:39.681Z,102862.84
2023-02-12T23:06:10.734Z,102866.72
2023-02-12T23:08:38.171Z,102867.66
2023-02-12T23:11:08.267Z,102883.75
2023-02-12T23:13:36.576Z,102873.03
2023-02-12T23:16:04.365Z,102881.13
2023-02-12T23:18:32.427Z,102880.72
2023-02-12T23:21:01.085Z,102871.63
2023-02-12T23:23:28.688Z,102876.81
2023-02-12T23:25:56.228Z,102880.47
2023-02-12T23:28:24.260Z,102878.75
2023-02-12T23:30:52.541Z,102884.22
2023-02-12T23:33:20.225Z,102891.47
2023-02-12T23:35:47.998Z,102891.25
2023-02-12T23:38:16.508Z,102882.31
2023-02-12T23:40:44.224Z,102884.00
2023-02-12T23:43:11.683Z,102895.56
2023-02-12T23:45:39.128Z,102888.63
2023-02-12T23:48:06.483Z,102880.53
2023-02-12T23:50:33.926Z,102887.78
2023-02-12T23:53:01.339Z,102880.50
2023-02-12T23:55:28.988Z,102870.75
2023-02-12T23:57:56.377Z,102872.47
